Wood, South Dakota
Current Conditions -  °F | °C
As of 2:53 PM on Tuesday 25 Nov 2014 (Local Time) from KICR Reporting Station
Overcast Overcast  
Wind Chill: 39°   Ceiling: 5000
Heat Index: 44°   Visibility: 10mi
Dew Point: 23°   Wind: 9mph
Humidity: 43%   Direction: 230°SW
Pressure: 29.76"   Gusts: NA
Location:  43.5°N, 100.48°W
Report Text: KICR 252153Z AUTO 23008KT 10SM OVC050 07/M05 A2976 RMK AO2 SLP093 T00671050
Loading
Personal Weather Stations






























Interactive Weather Map New forecast layout! Learn more

10-Day Weather Forecast

Advertisements
Track Severe Weather on mobile